sensor_id;sensor_type;location;lat;lon;timestamp;pressure;altitude;pressure_sealevel;temperature;humidity
59531;BME280;45349;48.692;8.186;2024-02-21T00:01:51;147966.31;;;7.17;90.72
59531;BME280;45349;48.692;8.186;2024-02-21T00:04:17;147975.03;;;7.20;90.28
59531;BME280;45349;48.692;8.186;2024-02-21T00:06:45;147971.28;;;7.19;90.38
59531;BME280;45349;48.692;8.186;2024-02-21T00:09:13;147977.53;;;7.21;89.99
59531;BME280;45349;48.692;8.186;2024-02-21T00:11:40;147972.53;;;7.19;89.87
59531;BME280;45349;48.692;8.186;2024-02-21T00:14:06;147967.56;;;7.17;92.49
59531;BME280;45349;48.692;8.186;2024-02-21T00:16:33;147935.28;;;7.04;96.79
59531;BME280;45349;48.692;8.186;2024-02-21T00:19:00;147907.94;;;6.92;98.10
59531;BME280;45349;48.692;8.186;2024-02-21T00:21:26;147895.50;;;6.87;95.86
59531;BME280;45349;48.692;8.186;2024-02-21T00:23:53;147909.16;;;6.93;94.81
59531;BME280;45349;48.692;8.186;2024-02-21T00:26:21;147910.41;;;6.93;94.86
59531;BME280;45349;48.692;8.186;2024-02-21T00:28:48;147916.59;;;6.96;93.80
59531;BME280;45349;48.692;8.186;2024-02-21T00:31:14;147932.78;;;7.03;92.27
59531;BME280;45349;48.692;8.186;2024-02-21T00:33:41;147951.41;;;7.11;90.67
59531;BME280;45349;48.692;8.186;2024-02-21T00:36:08;147941.47;;;7.06;93.97
59531;BME280;45349;48.692;8.186;2024-02-21T00:38:34;147920.34;;;6.98;95.49
59531;BME280;45349;48.692;8.186;2024-02-21T00:41:01;147911.63;;;6.94;97.46
59531;BME280;45349;48.692;8.186;2024-02-21T00:43:29;147906.66;;;6.92;97.87
59531;BME280;45349;48.692;8.186;2024-02-21T00:45:56;147896.78;;;6.88;98.85
59531;BME280;45349;48.692;8.186;2024-02-21T00:48:22;147884.34;;;6.83;100.00
59531;BME280;45349;48.692;8.186;2024-02-21T00:50:49;147890.53;;;6.85;97.59
59531;BME280;45349;48.692;8.186;2024-02-21T00:53:16;147884.34;;;6.83;99.91
59531;BME280;45349;48.692;8.186;2024-02-21T00:55:42;147878.13;;;6.80;100.00
59531;BME280;45349;48.692;8.186;2024-02-21T00:58:09;147869.44;;;6.76;100.00
59531;BME280;45349;48.692;8.186;2024-02-21T01:00:37;147869.44;;;6.76;100.00
59531;BME280;45349;48.692;8.186;2024-02-21T01:03:04;147860.72;;;6.73;100.00
59531;BME280;45349;48.692;8.186;2024-02-21T01:05:30;147822.22;;;6.57;100.00
59531;BME280;45349;48.692;8.186;2024-02-21T01:07:57;147833.38;;;6.61;100.00
59531;BME280;45349;48.692;8.186;2024-02-21T01:10:23;147830.91;;;6.60;100.00
59531;BME280;45349;48.692;8.186;2024-02-21T01:12:50;147816.00;;;6.54;100.00
59531;BME280;45349;48.692;8.186;2024-02-21T01:15:17;147814.78;;;6.54;100.00
59531;BME280;45349;48.692;8.186;2024-02-21T01:17:45;147813.50;;;6.53;100.00
59531;BME280;45349;48.692;8.186;2024-02-21T01:20:11;147803.56;;;6.49;100.00
59531;BME280;45349;48.692;8.186;2024-02-21T01:22:38;147796.13;;;6.46;100.00
59531;BME280;45349;48.692;8.186;2024-02-21T01:25:06;147793.63;;;6.45;100.00
59531;BME280;45349;48.692;8.186;2024-02-21T01:27:32;147801.09;;;6.48;100.00
59531;BME280;45349;48.692;8.186;2024-02-21T01:29:59;147798.59;;;6.47;100.00
59531;BME280;45349;48.692;8.186;2024-02-21T01:32:26;147802.38;;;6.48;100.00
59531;BME280;45349;48.692;8.186;2024-02-21T01:34:53;147798.59;;;6.47;100.00
59531;BME280;45349;48.692;8.186;2024-02-21T01:37:20;147787.44;;;6.42;100.00
59531;BME280;45349;48.692;8.186;2024-02-21T01:39:47;147782.47;;;6.40;100.00
59531;BME280;45349;48.692;8.186;2024-02-21T01:42:14;147792.44;;;6.44;100.00
59531;BME280;45349;48.692;8.186;2024-02-21T01:44:41;147793.63;;;6.45;100.00
59531;BME280;45349;48.692;8.186;2024-02-21T01:47:08;147783.72;;;6.41;100.00
59531;BME280;45349;48.692;8.186;2024-02-21T01:49:35;147788.66;;;6.43;100.00
59531;BME280;45349;48.692;8.186;2024-02-21T01:52:03;147813.50;;;6.53;100.00
59531;BME280;45349;48.692;8.186;2024-02-21T01:54:30;147827.19;;;6.59;100.00
59531;BME280;45349;48.692;8.186;2024-02-21T01:56:58;147809.81;;;6.52;100.00
59531;BME280;45349;48.692;8.186;2024-02-21T01:59:25;147806.06;;;6.50;100.00
59531;BME280;45349;48.692;8.186;2024-02-21T02:01:51;147793.63;;;6.45;100.00
59531;BME280;45349;48.692;8.186;2024-02-21T02:04:20;147781.22;;;6.40;100.00
59531;BME280;45349;48.692;8.186;2024-02-21T02:06:46;147771.34;;;6.35;100.00
59531;BME280;45349;48.692;8.186;2024-02-21T02:09:15;147758.91;;;6.30;100.00
59531;BME280;45349;48.692;8.186;2024-02-21T02:11:42;147762.63;;;6.32;100.00
59531;BME280;45349;48.692;8.186;2024-02-21T02:14:09;147751.47;;;6.27;100.00
59531;BME280;45349;48.692;8.186;2024-02-21T02:16:36;147753.94;;;6.28;100.00
59531;BME280;45349;48.692;8.186;2024-02-21T02:19:02;147746.50;;;6.25;100.00
59531;BME280;45349;48.692;8.186;2024-02-21T02:21:32;147756.44;;;6.29;100.00
59531;BME280;45349;48.692;8.186;2024-02-21T02:24:00;147761.41;;;6.31;100.00
59531;BME280;45349;48.692;8.186;2024-02-21T02:26:26;147748.97;;;6.26;100.00
59531;BME280;45349;48.692;8.186;2024-02-21T02:28:53;147741.53;;;6.23;100.00
59531;BME280;45349;48.692;8.186;2024-02-21T02:31:20;147748.97;;;6.26;100.00
59531;BME280;45349;48.692;8.186;2024-02-21T02:33:45;147767.59;;;6.34;100.00
59531;BME280;45349;48.692;8.186;2024-02-21T02:36:13;147786.19;;;6.42;99.88
59531;BME280;45349;48.692;8.186;2024-02-21T02:38:40;147835.88;;;6.62;93.70
59531;BME280;45349;48.692;8.186;2024-02-21T02:41:08;147835.88;;;6.62;97.17
59531;BME280;45349;48.692;8.186;2024-02-21T02:43:34;147832.16;;;6.61;96.73
59531;BME280;45349;48.692;8.186;2024-02-21T02:46:02;147835.88;;;6.62;94.90
59531;BME280;45349;48.692;8.186;2024-02-21T02:48:29;147838.34;;;6.63;95.14
59531;BME280;45349;48.692;8.186;2024-02-21T02:50:55;147832.16;;;6.61;95.06
59531;BME280;45349;48.692;8.186;2024-02-21T02:53:22;147817.25;;;6.55;97.51
59531;BME280;45349;48.692;8.186;2024-02-21T02:55:48;147784.97;;;6.41;100.00
59531;BME280;45349;48.692;8.186;2024-02-21T02:58:15;147761.41;;;6.31;100.00
59531;BME280;45349;48.692;8.186;2024-02-21T03:00:42;147747.72;;;6.26;100.00
59531;BME280;45349;48.692;8.186;2024-02-21T03:03:09;147724.13;;;6.16;100.00
59531;BME280;45349;48.692;8.186;2024-02-21T03:05:38;147689.38;;;6.01;100.00
59531;BME280;45349;48.692;8.186;2024-02-21T03:08:05;147652.06;;;5.86;100.00
59531;BME280;45349;48.692;8.186;2024-02-21T03:10:33;147635.97;;;5.79;100.00
59531;BME280;45349;48.692;8.186;2024-02-21T03:13:00;147598.72;;;5.64;100.00
59531;BME280;45349;48.692;8.186;2024-02-21T03:15:28;147573.88;;;5.53;100.00
59531;BME280;45349;48.692;8.186;2024-02-21T03:17:55;147546.59;;;5.42;100.00
59531;BME280;45349;48.692;8.186;2024-02-21T03:20:21;147520.50;;;5.31;100.00
59531;BME280;45349;48.692;8.186;2024-02-21T03:22:48;147491.97;;;5.19;100.00
59531;BME280;45349;48.692;8.186;2024-02-21T03:25:15;147473.38;;;5.11;100.00
59531;BME280;45349;48.692;8.186;2024-02-21T03:27:41;147459.72;;;5.06;100.00
59531;BME280;45349;48.692;8.186;2024-02-21T03:30:09;147421.28;;;4.90;100.00
59531;BME280;45349;48.692;8.186;2024-02-21T03:32:37;147405.13;;;4.83;100.00
59531;BME280;45349;48.692;8.186;2024-02-21T03:35:04;147397.69;;;4.80;100.00
59531;BME280;45349;48.692;8.186;2024-02-21T03:37:31;147401.41;;;4.81;100.00
59531;BME280;45349;48.692;8.186;2024-02-21T03:39:58;147389.00;;;4.76;100.00
59531;BME280;45349;48.692;8.186;2024-02-21T03:42:24;147412.56;;;4.86;100.00
59531;BME280;45349;48.692;8.186;2024-02-21T03:44:51;147417.53;;;4.88;100.00
59531;BME280;45349;48.692;8.186;2024-02-21T03:47:18;147408.88;;;4.84;100.00
59531;BME280;45349;48.692;8.186;2024-02-21T03:49:46;147411.34;;;4.85;100.00
59531;BME280;45349;48.692;8.186;2024-02-21T03:52:12;147420.00;;;4.89;100.00
59531;BME280;45349;48.692;8.186;2024-02-21T03:54:39;147407.59;;;4.84;100.00
59531;BME280;45349;48.692;8.186;2024-02-21T03:57:05;147398.94;;;4.80;100.00
59531;BME280;45349;48.692;8.186;2024-02-21T03:59:32;147396.47;;;4.79;100.00
59531;BME280;45349;48.692;8.186;2024-02-21T04:01:59;147385.31;;;4.75;100.00
59531;BME280;45349;48.692;8.186;2024-02-21T04:04:26;147371.66;;;4.69;100.00
59531;BME280;45349;48.692;8.186;2024-02-21T04:06:54;147360.50;;;4.64;100.00
59531;BME280;45349;48.692;8.186;2024-02-21T04:09:20;147353.06;;;4.61;100.00
59531;BME280;45349;48.692;8.186;2024-02-21T04:11:47;147334.44;;;4.53;100.00
59531;BME280;45349;48.692;8.186;2024-02-21T04:14:13;147322.03;;;4.48;100.00
59531;BME280;45349;48.692;8.186;2024-02-21T04:16:40;147289.78;;;4.35;100.00
59531;BME280;45349;48.692;8.186;2024-02-21T04:19:07;147269.94;;;4.26;100.00
59531;BME280;45349;48.692;8.186;2024-02-21T04:21:34;147241.44;;;4.14;100.00
59531;BME280;45349;48.692;8.186;2024-02-21T04:24:02;147235.25;;;4.12;100.00
59531;BME280;45349;48.692;8.186;2024-02-21T04:26:30;147237.75;;;4.13;100.00
59531;BME280;45349;48.692;8.186;2024-02-21T04:28:57;147211.69;;;4.02;100.00
59531;BME280;45349;48.692;8.186;2024-02-21T04:31:24;147205.50;;;3.99;100.00
59531;BME280;45349;48.692;8.186;2024-02-21T04:33:50;147194.31;;;3.95;100.00
59531;BME280;45349;48.692;8.186;2024-02-21T04:36:17;147183.19;;;3.90;100.00
59531;BME280;45349;48.692;8.186;2024-02-21T04:38:45;147175.75;;;3.87;100.00
59531;BME280;45349;48.692;8.186;2024-02-21T04:41:13;147160.88;;;3.81;100.00
59531;BME280;45349;48.692;8.186;2024-02-21T04:43:39;147146.00;;;3.75;100.00
59531;BME280;45349;48.692;8.186;2024-02-21T04:46:06;147136.06;;;3.71;100.00
59531;BME280;45349;48.692;8.186;2024-02-21T04:48:32;147137.28;;;3.71;100.00
59531;BME280;45349;48.692;8.186;2024-02-21T04:50:59;147137.28;;;3.71;100.00
59531;BME280;45349;48.692;8.186;2024-02-21T04:53:26;147126.16;;;3.66;100.00
59531;BME280;45349;48.692;8.186;2024-02-21T04:55:52;147157.13;;;3.79;100.00
59531;BME280;45349;48.692;8.186;2024-02-21T04:58:20;147137.28;;;3.71;100.00
59531;BME280;45349;48.692;8.186;2024-02-21T05:00:47;147128.63;;;3.67;100.00
59531;BME280;45349;48.692;8.186;2024-02-21T05:03:14;147113.75;;;3.61;100.00
59531;BME280;45349;48.692;8.186;2024-02-21T05:05:40;147116.25;;;3.62;100.00
59531;BME280;45349;48.692;8.186;2024-02-21T05:08:09;147122.47;;;3.65;100.00
59531;BME280;45349;48.692;8.186;2024-02-21T05:10:36;147102.63;;;3.57;100.00
59531;BME280;45349;48.692;8.186;2024-02-21T05:13:03;147126.16;;;3.66;100.00
59531;BME280;45349;48.692;8.186;2024-02-21T05:15:31;147126.16;;;3.66;100.00
59531;BME280;45349;48.692;8.186;2024-02-21T05:17:58;147116.25;;;3.62;100.00
59531;BME280;45349;48.692;8.186;2024-02-21T05:20:25;147108.81;;;3.59;100.00
59531;BME280;45349;48.692;8.186;2024-02-21T05:22:51;147098.88;;;3.55;100.00
59531;BME280;45349;48.692;8.186;2024-02-21T05:25:18;147088.97;;;3.51;100.00
59531;BME280;45349;48.692;8.186;2024-02-21T05:27:45;147066.66;;;3.42;100.00
59531;BME280;45349;48.692;8.186;2024-02-21T05:30:12;147059.22;;;3.38;100.00
59531;BME280;45349;48.692;8.186;2024-02-21T05:32:40;147058.00;;;3.38;100.00
59531;BME280;45349;48.692;8.186;2024-02-21T05:35:07;147048.09;;;3.34;100.00
59531;BME280;45349;48.692;8.186;2024-02-21T05:37:34;147033.22;;;3.28;100.00
59531;BME280;45349;48.692;8.186;2024-02-21T05:40:00;147051.78;;;3.35;100.00
59531;BME280;45349;48.692;8.186;2024-02-21T05:42:27;147027.00;;;3.25;100.00
59531;BME280;45349;48.692;8.186;2024-02-21T05:44:53;147025.78;;;3.24;100.00
59531;BME280;45349;48.692;8.186;2024-02-21T05:47:20;147013.41;;;3.19;100.00
59531;BME280;45349;48.692;8.186;2024-02-21T05:49:48;147014.63;;;3.20;100.00
59531;BME280;45349;48.692;8.186;2024-02-21T05:52:18;147019.56;;;3.22;100.00
59531;BME280;45349;48.692;8.186;2024-02-21T05:54:45;147024.53;;;3.24;100.00
59531;BME280;45349;48.692;8.186;2024-02-21T05:57:12;147012.13;;;3.19;100.00
59531;BME280;45349;48.692;8.186;2024-02-21T05:59:38;147025.78;;;3.24;100.00
59531;BME280;45349;48.692;8.186;2024-02-21T06:02:07;147007.22;;;3.17;100.00
59531;BME280;45349;48.692;8.186;2024-02-21T06:04:33;146997.31;;;3.13;100.00
59531;BME280;45349;48.692;8.186;2024-02-21T06:07:02;147017.09;;;3.21;100.00
59531;BME280;45349;48.692;8.186;2024-02-21T06:09:28;147009.69;;;3.18;100.00
59531;BME280;45349;48.692;8.186;2024-02-21T06:11:55;147002.28;;;3.15;100.00
59531;BME280;45349;48.692;8.186;2024-02-21T06:14:21;146994.84;;;3.12;100.00
59531;BME280;45349;48.692;8.186;2024-02-21T06:16:48;146979.97;;;3.05;100.00
59531;BME280;45349;48.692;8.186;2024-02-21T06:19:15;146984.91;;;3.07;100.00
59531;BME280;45349;48.692;8.186;2024-02-21T06:21:41;146984.91;;;3.07;100.00
59531;BME280;45349;48.692;8.186;2024-02-21T06:24:09;146992.34;;;3.10;100.00
59531;BME280;45349;48.692;8.186;2024-02-21T06:26:37;146993.56;;;3.11;100.00
59531;BME280;45349;48.692;8.186;2024-02-21T06:29:05;147008.44;;;3.17;100.00
59531;BME280;45349;48.692;8.186;2024-02-21T06:31:32;146998.53;;;3.13;100.00
59531;BME280;45349;48.692;8.186;2024-02-21T06:33:58;147005.97;;;3.16;100.00
59531;BME280;45349;48.692;8.186;2024-02-21T06:36:25;147048.09;;;3.34;100.00
59531;BME280;45349;48.692;8.186;2024-02-21T06:38:52;147054.28;;;3.36;100.00
59531;BME280;45349;48.692;8.186;2024-02-21T06:41:20;147061.72;;;3.39;100.00
59531;BME280;45349;48.692;8.186;2024-02-21T06:43:47;147072.88;;;3.44;100.00
59531;BME280;45349;48.692;8.186;2024-02-21T06:46:22;147084.00;;;3.49;100.00
59531;BME280;45349;48.692;8.186;2024-02-21T06:48:52;147112.53;;;3.61;100.00
59531;BME280;45349;48.692;8.186;2024-02-21T06:51:18;147121.19;;;3.64;100.00
59531;BME280;45349;48.692;8.186;2024-02-21T06:53:48;147146.00;;;3.75;100.00
59531;BME280;45349;48.692;8.186;2024-02-21T06:56:15;147144.72;;;3.74;100.00
59531;BME280;45349;48.692;8.186;2024-02-21T06:58:43;147158.38;;;3.80;100.00
59531;BME280;45349;48.692;8.186;2024-02-21T07:01:10;147169.53;;;3.84;100.00
59531;BME280;45349;48.692;8.186;2024-02-21T07:03:36;147193.09;;;3.94;100.00
59531;BME280;45349;48.692;8.186;2024-02-21T07:06:04;147204.25;;;3.99;100.00
59531;BME280;45349;48.692;8.186;2024-02-21T07:08:30;147211.69;;;4.02;100.00
59531;BME280;45349;48.692;8.186;2024-02-21T07:10:57;147226.56;;;4.08;100.00
59531;BME280;45349;48.692;8.186;2024-02-21T07:13:23;147236.47;;;4.12;100.00
59531;BME280;45349;48.692;8.186;2024-02-21T07:15:51;147261.28;;;4.23;100.00
59531;BME280;45349;48.692;8.186;2024-02-21T07:18:18;147279.84;;;4.31;100.00
59531;BME280;45349;48.692;8.186;2024-02-21T07:20:45;147302.19;;;4.40;100.00
59531;BME280;45349;48.692;8.186;2024-02-21T07:23:11;147327.00;;;4.50;100.00
59531;BME280;45349;48.692;8.186;2024-02-21T07:25:38;147353.06;;;4.61;100.00
59531;BME280;45349;48.692;8.186;2024-02-21T07:28:06;147390.28;;;4.77;100.00
59531;BME280;45349;48.692;8.186;2024-02-21T07:30:33;147410.06;;;4.85;100.00
59531;BME280;45349;48.692;8.186;2024-02-21T07:33:02;147458.50;;;5.05;100.00
59531;BME280;45349;48.692;8.186;2024-02-21T07:35:28;147484.53;;;5.16;100.00
59531;BME280;45349;48.692;8.186;2024-02-21T07:37:55;147518.06;;;5.30;100.00
59531;BME280;45349;48.692;8.186;2024-02-21T07:40:22;147555.25;;;5.45;100.00
59531;BME280;45349;48.692;8.186;2024-02-21T07:42:49;147581.34;;;5.56;100.00
59531;BME280;45349;48.692;8.186;2024-02-21T07:45:16;147602.41;;;5.65;100.00
59531;BME280;45349;48.692;8.186;2024-02-21T07:47:43;147643.41;;;5.82;100.00
59531;BME280;45349;48.692;8.186;2024-02-21T07:50:11;147671.94;;;5.94;100.00
59531;BME280;45349;48.692;8.186;2024-02-21T07:52:38;147706.75;;;6.09;100.00
59531;BME280;45349;48.692;8.186;2024-02-21T07:55:05;147735.28;;;6.20;100.00
59531;BME280;45349;48.692;8.186;2024-02-21T07:57:32;147782.47;;;6.40;100.00
59531;BME280;45349;48.692;8.186;2024-02-21T07:59:59;147825.94;;;6.58;100.00
59531;BME280;45349;48.692;8.186;2024-02-21T08:02:25;147875.63;;;6.79;98.02
59531;BME280;45349;48.692;8.186;2024-02-21T08:04:52;147915.38;;;6.96;98.67
59531;BME280;45349;48.692;8.186;2024-02-21T08:07:20;147946.44;;;7.08;96.75
59531;BME280;45349;48.692;8.186;2024-02-21T08:09:47;147993.66;;;7.28;92.98
59531;BME280;45349;48.692;8.186;2024-02-21T08:12:13;148038.41;;;7.47;91.46
59531;BME280;45349;48.692;8.186;2024-02-21T08:14:40;148049.56;;;7.51;92.33
59531;BME280;45349;48.692;8.186;2024-02-21T08:17:07;148052.03;;;7.52;93.96
59531;BME280;45349;48.692;8.186;2024-02-21T08:19:34;148084.38;;;7.66;93.08
59531;BME280;45349;48.692;8.186;2024-02-21T08:22:01;148109.22;;;7.76;91.92
59531;BME280;45349;48.692;8.186;2024-02-21T08:24:30;148146.53;;;7.92;90.35
59531;BME280;45349;48.692;8.186;2024-02-21T08:26:56;148151.50;;;7.94;91.04
59531;BME280;45349;48.692;8.186;2024-02-21T08:29:23;148190.03;;;8.10;89.59
59531;BME280;45349;48.692;8.186;2024-02-21T08:31:49;148226.09;;;8.25;89.73
59531;BME280;45349;48.692;8.186;2024-02-21T08:34:16;148254.69;;;8.37;88.48
59531;BME280;45349;48.692;8.186;2024-02-21T08:36:43;148249.72;;;8.35;85.83
59531;BME280;45349;48.692;8.186;2024-02-21T08:39:10;148273.38;;;8.45;85.56
59531;BME280;45349;48.692;8.186;2024-02-21T08:41:41;148294.53;;;8.53;83.61
59531;BME280;45349;48.692;8.186;2024-02-21T08:44:08;148318.16;;;8.63;83.59
59531;BME280;45349;48.692;8.186;2024-02-21T08:46:35;148334.34;;;8.70;82.79
59531;BME280;45349;48.692;8.186;2024-02-21T08:49:03;148308.19;;;8.59;85.00
59531;BME280;45349;48.692;8.186;2024-02-21T08:51:30;148330.59;;;8.68;84.90
59531;BME280;45349;48.692;8.186;2024-02-21T08:53:56;148335.56;;;8.70;85.32
59531;BME280;45349;48.692;8.186;2024-02-21T08:56:24;148360.44;;;8.81;83.03
59531;BME280;45349;48.692;8.186;2024-02-21T08:58:52;148344.28;;;8.74;83.41
59531;BME280;45349;48.692;8.186;2024-02-21T09:01:19;148348.00;;;8.76;82.49
59531;BME280;45349;48.692;8.186;2024-02-21T09:03:46;148361.72;;;8.81;84.66
59531;BME280;45349;48.692;8.186;2024-02-21T09:06:13;148379.13;;;8.89;84.35
59531;BME280;45349;48.692;8.186;2024-02-21T09:08:39;148428.84;;;9.09;82.79
59531;BME280;45349;48.692;8.186;2024-02-21T09:11:06;148448.75;;;9.18;80.56
59531;BME280;45349;48.692;8.186;2024-02-21T09:13:33;148463.69;;;9.24;77.06
59531;BME280;45349;48.692;8.186;2024-02-21T09:16:01;148537.09;;;9.54;78.88
59531;BME280;45349;48.692;8.186;2024-02-21T09:18:28;148569.47;;;9.68;76.26
59531;BME280;45349;48.692;8.186;2024-02-21T09:20:54;148591.88;;;9.77;77.47
59531;BME280;45349;48.692;8.186;2024-02-21T09:23:24;148596.84;;;9.79;74.97
59531;BME280;45349;48.692;8.186;2024-02-21T09:25:50;148544.56;;;9.57;72.08
59531;BME280;45349;48.692;8.186;2024-02-21T09:28:17;148573.22;;;9.69;70.35
59531;BME280;45349;48.692;8.186;2024-02-21T09:30:44;148628.00;;;9.92;71.38
59531;BME280;45349;48.692;8.186;2024-02-21T09:33:12;148645.44;;;9.99;71.14
59531;BME280;45349;48.692;8.186;2024-02-21T09:35:39;148626.72;;;9.92;73.63
59531;BME280;45349;48.692;8.186;2024-02-21T09:38:05;148690.22;;;10.18;71.55
59531;BME280;45349;48.692;8.186;2024-02-21T09:40:32;148701.44;;;10.23;73.38
59531;BME280;45349;48.692;8.186;2024-02-21T09:43:04;148674.03;;;10.11;72.64
59531;BME280;45349;48.692;8.186;2024-02-21T09:45:33;148708.91;;;10.26;74.37
59531;BME280;45349;48.692;8.186;2024-02-21T09:48:26;148720.09;;;10.30;74.53
59531;BME280;45349;48.692;8.186;2024-02-21T09:50:57;148700.19;;;10.22;75.30
59531;BME280;45349;48.692;8.186;2024-02-21T09:53:26;148676.53;;;10.12;77.25
59531;BME280;45349;48.692;8.186;2024-02-21T09:55:54;148679.03;;;10.13;76.32
59531;BME280;45349;48.692;8.186;2024-02-21T09:58:22;148655.41;;;10.03;75.85
59531;BME280;45349;48.692;8.186;2024-02-21T10:00:51;148723.84;;;10.32;77.23
59531;BME280;45349;48.692;8.186;2024-02-21T10:03:19;148763.75;;;10.48;76.97
59531;BME280;45349;48.692;8.186;2024-02-21T10:05:48;148779.94;;;10.55;74.73
59531;BME280;45349;48.692;8.186;2024-02-21T10:08:16;148773.72;;;10.53;74.24
59531;BME280;45349;48.692;8.186;2024-02-21T10:10:43;148811.03;;;10.68;74.80
59531;BME280;45349;48.692;8.186;2024-02-21T10:13:11;148850.91;;;10.85;71.34
59531;BME280;45349;48.692;8.186;2024-02-21T10:15:37;148837.22;;;10.79;71.98
59531;BME280;45349;48.692;8.186;2024-02-21T10:18:04;148873.34;;;10.94;72.46
59531;BME280;45349;48.692;8.186;2024-02-21T10:20:33;148885.78;;;10.99;72.00
59531;BME280;45349;48.692;8.186;2024-02-21T10:23:00;148875.81;;;10.95;71.88
59531;BME280;45349;48.692;8.186;2024-02-21T10:25:27;148920.69;;;11.14;72.91
59531;BME280;45349;48.692;8.186;2024-02-21T10:27:54;148959.28;;;11.30;68.13
59531;BME280;45349;48.692;8.186;2024-02-21T10:30:21;148948.09;;;11.25;67.80
59531;BME280;45349;48.692;8.186;2024-02-21T10:32:50;148989.19;;;11.42;69.02
59531;BME280;45349;48.692;8.186;2024-02-21T10:35:26;148918.19;;;11.13;68.98
59531;BME280;45349;48.692;8.186;2024-02-21T10:37:54;148934.38;;;11.19;67.00
59531;BME280;45349;48.692;8.186;2024-02-21T10:40:23;148963.06;;;11.31;68.38
59531;BME280;45349;48.692;8.186;2024-02-21T10:42:55;149014.13;;;11.52;69.36
59531;BME280;45349;48.692;8.186;2024-02-21T10:45:23;149037.81;;;11.62;67.00
59531;BME280;45349;48.692;8.186;2024-02-21T10:47:55;149062.72;;;11.73;65.47
59531;BME280;45349;48.692;8.186;2024-02-21T10:50:25;149036.56;;;11.62;65.12
59531;BME280;45349;48.692;8.186;2024-02-21T10:52:59;148954.31;;;11.28;68.17
59531;BME280;45349;48.692;8.186;2024-02-21T10:55:37;149032.84;;;11.60;67.99
59531;BME280;45349;48.692;8.186;2024-02-21T10:58:05;149016.63;;;11.54;65.97
59531;BME280;45349;48.692;8.186;2024-02-21T11:00:33;149021.59;;;11.56;64.71
59531;BME280;45349;48.692;8.186;2024-02-21T11:03:00;148961.78;;;11.31;66.37
59531;BME280;45349;48.692;8.186;2024-02-21T11:05:27;149001.66;;;11.47;65.67
59531;BME280;45349;48.692;8.186;2024-02-21T11:07:55;148994.19;;;11.44;66.40
59531;BME280;45349;48.692;8.186;2024-02-21T11:10:24;148892.03;;;11.02;67.67
59531;BME280;45349;48.692;8.186;2024-02-21T11:12:52;148849.69;;;10.84;68.49
59531;BME280;45349;48.692;8.186;2024-02-21T11:15:25;148949.31;;;11.26;66.21
59531;BME280;45349;48.692;8.186;2024-02-21T11:17:55;148923.16;;;11.15;68.27
59531;BME280;45349;48.692;8.186;2024-02-21T11:20:31;148852.19;;;10.85;68.89
59531;BME280;45349;48.692;8.186;2024-02-21T11:22:59;148968.03;;;11.33;66.47
59531;BME280;45349;48.692;8.186;2024-02-21T11:25:28;148943.09;;;11.23;68.27
59531;BME280;45349;48.692;8.186;2024-02-21T11:28:00;148934.38;;;11.19;67.37
59531;BME280;45349;48.692;8.186;2024-02-21T11:30:27;149002.94;;;11.48;66.94
59531;BME280;45349;48.692;8.186;2024-02-21T11:33:00;149042.81;;;11.64;66.81
59531;BME280;45349;48.692;8.186;2024-02-21T11:35:31;149083.91;;;11.81;65.51
59531;BME280;45349;48.692;8.186;2024-02-21T11:38:07;149045.31;;;11.65;66.28
59531;BME280;45349;48.692;8.186;2024-02-21T11:40:38;149107.59;;;11.91;66.24
59531;BME280;45349;48.692;8.186;2024-02-21T11:43:05;149061.47;;;11.72;67.87
59531;BME280;45349;48.692;8.186;2024-02-21T11:45:32;149041.53;;;11.64;66.15
59531;BME280;45349;48.692;8.186;2024-02-21T11:47:59;149065.19;;;11.74;66.49
59531;BME280;45349;48.692;8.186;2024-02-21T11:50:29;149103.88;;;11.90;67.06
59531;BME280;45349;48.692;8.186;2024-02-21T11:52:56;149113.84;;;11.94;65.20
59531;BME280;45349;48.692;8.186;2024-02-21T11:55:23;149101.38;;;11.89;65.93
59531;BME280;45349;48.692;8.186;2024-02-21T11:57:51;149082.66;;;11.81;66.56
59531;BME280;45349;48.692;8.186;2024-02-21T12:00:19;149101.38;;;11.89;68.26
59531;BME280;45349;48.692;8.186;2024-02-21T12:02:47;149112.56;;;11.93;67.21
59531;BME280;45349;48.692;8.186;2024-02-21T12:05:14;149072.69;;;11.77;68.53
59531;BME280;45349;48.692;8.186;2024-02-21T12:07:41;149102.59;;;11.89;67.98
59531;BME280;45349;48.692;8.186;2024-02-21T12:10:08;149117.56;;;11.95;68.38
59531;BME280;45349;48.692;8.186;2024-02-21T12:12:36;149121.31;;;11.97;68.80
59531;BME280;45349;48.692;8.186;2024-02-21T12:15:05;149078.94;;;11.79;67.72
59531;BME280;45349;48.692;8.186;2024-02-21T12:17:32;149116.34;;;11.95;68.63
59531;BME280;45349;48.692;8.186;2024-02-21T12:20:00;149172.47;;;12.18;67.20
59531;BME280;45349;48.692;8.186;2024-02-21T12:22:29;149156.28;;;12.12;67.38
59531;BME280;45349;48.692;8.186;2024-02-21T12:25:03;149207.38;;;12.33;67.29
59531;BME280;45349;48.692;8.186;2024-02-21T12:27:29;149171.25;;;12.18;68.54
59531;BME280;45349;48.692;8.186;2024-02-21T12:29:56;149132.56;;;12.02;67.10
59531;BME280;45349;48.692;8.186;2024-02-21T12:32:24;149118.81;;;11.96;69.52
59531;BME280;45349;48.692;8.186;2024-02-21T12:34:51;149177.44;;;12.20;69.04
59531;BME280;45349;48.692;8.186;2024-02-21T12:37:17;149167.47;;;12.16;67.93
59531;BME280;45349;48.692;8.186;2024-02-21T12:39:45;149158.78;;;12.13;66.72
59531;BME280;45349;48.692;8.186;2024-02-21T12:42:11;149133.84;;;12.02;66.85
59531;BME280;45349;48.692;8.186;2024-02-21T12:44:38;149148.78;;;12.08;66.05
59531;BME280;45349;48.692;8.186;2024-02-21T12:47:05;149021.59;;;11.56;68.61
59531;BME280;45349;48.692;8.186;2024-02-21T12:49:34;149107.59;;;11.91;67.17
59531;BME280;45349;48.692;8.186;2024-02-21T12:52:01;149051.50;;;11.68;68.47
59531;BME280;45349;48.692;8.186;2024-02-21T12:54:28;149116.34;;;11.95;67.39